Moncks Corner, SC

10:47 PM EST on February 09, 2016 (GMT -0500)
Moncks Corner | | Change Station
CLOSE
Current Station
Airport
Location: Moncks Corner,
Elevation: 72 ft
Nearby Weather Stations
Active Advisory: Flood Warning, Lake Wind Advisory

Elev 72 ft 33.19 °N, 80.04 °W | Updated 12 minutes ago

Scattered Clouds
Scattered Clouds
34 °F
Feels Like 29 °F
N
6
Wind Variable Wind from West

Today
High -- | Low -- °F
--% Chance of Precip.
Yesterday
High -- | Low -- °F
Precip. -- in
Pressure 29.94 in
Visibility 10.0 miles
Clouds Scattered Clouds 9000 ft
Windchill 29 °F
Dew Point 18 °F
Humidity 52%
Rainfall 0.00 in
Snow Depth Not available.
7:09 AM 5:59 PM
Waxing Crescent, 3% visible
METAR KMKS 100335Z AUTO 26005KT 10SM SCT090 01/M08 A2994 RMK AO2
Pressure 29.94 in
Visibility 10.0 miles
Clouds Scattered Clouds 9000 ft
Windchill 29 °F
Dew Point 18 °F
Humidity 52%
Rainfall 0.00 in
Snow Depth Not available.
7:09 AM 5:59 PM
Waxing Crescent, 3% visible
METAR KMKS 100335Z AUTO 26005KT 10SM SCT090 01/M08 A2994 RMK AO2

10-Day Weather Forecast

Almanac

Astronomy

Feb. 09, 2016 Rise Set
Actual Time
Civil Twilight
Nautical Twilight
Astronomical Twilight
Moon
Length of Visible Light
Length of Day
Tomorrow will be .
, % of the Moon is Illuminated

Today's Extremes

State Highs State Lows

Community

WunderPhotos

Upload Photos

1,891,792 photos uploaded!

WunderBlog® & News

Nearby

Air Quality

  Air Quality AQ Index Pollutant
Not available.

Snow Depth

Station Depth Elevation

Earthquake Activity

City Distance Mag. Time & Date
Minimum magnitude displayed is 2.5.

Coastal Water Temperatures

Place Temperature

Stations

Nearby Weather Stations

Station Location Temp. Windchill Dew Point Humidity Wind Precip. Elev Updated Type
                   

Watches & Warnings

Flood Warning
Issued: 8:30 PM EST Feb. 9, 2016 – National Weather Service

The Flood Warning continues for
the Santee river near Jamestown.
* At 7 PM Tuesday the stage was 13.7 feet.
* Flood stage is 10.0 feet.
* Minor flooding is occurring.
* Forecast, the river will remain nearly steady or slowly fall.
* At 12.0 feet, several dirt logging roads are impassable.


Lat... Lon 3347 8002 3354 7998 3325 7937 3321 7938
          3320 7951 3329 7976




Lake Wind Advisory
Issued: 9:31 PM EST Feb. 9, 2016 – National Weather Service

... Lake Wind Advisory remains in effect until 11 PM EST Wednesday
for Lake Moultrie...

* winds... west 20 knots with gusts up to 30 knots.

* Waves... 2 feet... highest central and east portions.

* Impacts... strong winds and rough waves on Lake Moultrie will
make conditions difficult for small craft.

Precautionary/preparedness actions...

Mariners on Lake Moultrie should use extra caution since strong
winds and rough waves can overturn small craft.